Terminal Aerodrome Forecast
Issued by NWS Atlanta, GA

Home | Current Version | Previous Version | Text Only | Print | Product List | Glossary On
Versions: 1 2 3 4 5 6 7 8 9 10 11 12 13 14 15 16 17 18 19 20 21 22 23 24 25 26 27 28 29 30
000
FTAK31 PAJN 141140
TAFAHN
TAF
PAHN 141140Z 1412/1512 07015G25KT P6SM -RA OVC035 WS020/15035KT
     FM141800 09015G25KT 4SM RA BR BKN015 OVC025 WS020/16045KT
     FM142200 11020G30KT 5SM SHRA BR SCT015 OVC025 WS020/20035KT
     FM150400 10012G22KT 6SM -SHRA BR OVC025
     FM150800 10010G20KT P6SM -SHRA SCT025 OVC050
      AMD LTD TO CLD VIS AND WIND=

USA.gov is the U.S. government's official web portal to all federal, state and local government web resources and services.